This is the latest recevied weather packets stored in our database for station/object KE6JJJ-1. If no packets are shown the sender has not sent any weather packets the latest 10 day(s).
| Time | Temp. | Humidity | Pressure | Rain* | Wind** | Luminosity | Snow |
|---|---|---|---|---|---|---|---|
| 1788649504 | 21.11° C | 71% | 1014.2 hPa | 0 mm | - | 589 W/m² | - |
| 1788647703 | 21.67° C | 67% | 1014.2 hPa | 0 mm | - | 664 W/m² | - |
| 1788645904 | 21.67° C | 67% | 1014.2 hPa | 0 mm | - | 731 W/m² | - |
| 1788644103 | 21.67° C | 68% | 1014.3 hPa | 0 mm | - | 773 W/m² | - |
| 1788642304 | 22.22° C | 63% | 1014.5 hPa | 0 mm | - | 807 W/m² | - |
| 1788640503 | 22.22° C | 61% | 1014.5 hPa | 0 mm | - | 828 W/m² | - |
| 1788638703 | 22.22° C | 63% | 1014.5 hPa | 0 mm | - | 835 W/m² | - |
| 1788636903 | 22.22° C | 64% | 1014.9 hPa | 0 mm | - | 828 W/m² | - |
| 1788635104 | 22.78° C | 65% | 1014.9 hPa | 0 mm | - | 802 W/m² | - |
| 1788631504 | 21.67° C | 68% | 1014.9 hPa | 0 mm | - | 715 W/m² | - |
| 1788629704 | 21.11° C | 70% | 1014.7 hPa | 0 mm | - | 652 W/m² | - |
| 1788627903 | 20° C | 73% | 1014.3 hPa | 0 mm | - | 584 W/m² | - |
| 1788626111 | 18.33° C | 81% | 1014.4 hPa | 0 mm | - | 493 W/m² | - |
| 1788624304 | 17.22° C | 87% | 1014.4 hPa | 0 mm | - | 403 W/m² | - |
| 1788622503 | 16.11° C | 89% | 1014.5 hPa | 0 mm | - | 299 W/m² | - |
| 1788620712 | 15.56° C | 90% | 1014.4 hPa | 0 mm | - | 188 W/m² | - |
| 1788618903 | 14.44° C | 90% | 1014.3 hPa | 0 mm | - | 90 W/m² | - |
| 1788617104 | 14.44° C | 90% | 1014 hPa | 0 mm | - | 19 W/m² | - |
| 1788615303 | 14.44° C | 89% | 1013.9 hPa | 0 mm | - | 0 W/m² | - |
| 1788613503 | 14.44° C | 89% | 1013.8 hPa | 0 mm | - | 0 W/m² | - |
| 1788609904 | 14.44° C | 88% | 1013.9 hPa | 0 mm | - | 0 W/m² | - |
| 1788608104 | 15° C | 88% | 1013.9 hPa | 0 mm | - | 0 W/m² | - |
| 1788606335 | 15° C | 88% | 1014 hPa | 0 mm | - | 0 W/m² | - |
| 1788606303 | 15° C | 88% | 1014 hPa | 0 mm | - | 0 W/m² | - |
| 1788604579 | 14.44° C | 87% | 1013.9 hPa | 0 mm | - | 0 W/m² | - |
* Rain latest hour (hover to see other rain measurements)
** Current wind speed in m/s (hover to see current wind gust speed)